Skip Navigation LinksHome page > Weather > Current weather Skip Navigation Links

Current Weather

Moundou, Chad

For information only: do not use for flight planning or navigation.
Latest weather
Observation time Wednesday, January 18, 2017 2:00 PM WAT
Local time Wednesday, January 18, 2017 2:59 PM WAT
Flight conditions Visual Meteorological Conditions
Winds
Wind direction North (360°)
Wind speed 7 mph
Visibility 6.2 mi.
Sky condition
Ceiling unlimited
Sky clear
Temperature 99°F
Dewpoint 37°F
Altimeter 29.77 in.Hg
Derived measurements
Relative humidity 12%
Heat index 99°F
Density altitude 3205 ft.
Remarks
Ceiling and visibility OK.
METAR FTTD 181300Z 36006KT CAVOK 37/03 Q1008

Settings

Location code

InnerDrive.Weather 4.0.6144.1 Release CLR 4.0.30319.34209
Copyright ©2015 Inner Drive Technology. All rights reserved. Portions Copyright ©1986-2015 David Braverman.

Find weather

Site navigation


Skip Navigation Links

Place info

Page info

PayPal - The safer, easier way to pay online!

Return home.

Copyright ©2017 Inner Drive Technology. Purveyors of fine, hand-crafted computer software. Page printed 2017-01-18T13:59:03 UTC.